Time;durP1;ratioP1;P1;durP2;ratioP2;P2;SDS_P1;SDS_P2;PMS_P1;PMS_P2;Temp;Humidity;BMP_temperature;BMP_pressure;BME280_temperature;BME280_humidity;BME280_pressure;Samples;Min_cycle;Max_cycle;Signal;HPM_P1;HPM_P2
2022/04/19 00:02:01;;;;;;;4.37;3.50;;;;;;;;;;5007739;28;20187;-78
2022/04/19 00:04:28;;;;;;;3.87;3.30;;;;;;;;;;4998708;28;20205;-77
2022/04/19 00:06:54;;;;;;;4.83;3.73;;;;;;;;;;5006708;28;20305;-77
2022/04/19 00:09:20;;;;;;;4.73;3.40;;;;;;;;;;4988062;28;20199;-77
2022/04/19 00:11:46;;;;;;;3.80;3.47;;;;;;;;;;5008588;28;20217;-77
2022/04/19 00:14:12;;;;;;;4.00;3.60;;;;;;;;;;5005690;28;20218;-77
2022/04/19 00:16:38;;;;;;;5.53;3.50;;;;;;;;;;4992637;28;20326;-77
2022/04/19 00:19:05;;;;;;;5.43;3.50;;;;;;;;;;5000909;28;20190;-77
2022/04/19 00:21:31;;;;;;;5.33;3.20;;;;;;;;;;4986028;28;20730;-78
2022/04/19 00:23:58;;;;;;;3.93;3.53;;;;;;;;;;5005586;28;20266;-77
2022/04/19 00:26:25;;;;;;;4.47;3.30;;;;;;;;;;5002595;28;20210;-77
2022/04/19 00:28:51;;;;;;;4.37;3.97;;;;;;;;;;5002992;28;20219;-76
2022/04/19 00:31:18;;;;;;;5.10;3.83;;;;;;;;;;5008768;28;20570;-76
2022/04/19 00:33:45;;;;;;;4.30;3.70;;;;;;;;;;5023203;28;20191;-78
2022/04/19 00:36:14;;;;;;;6.93;3.83;;;;;;;;;;5009966;28;20211;-77
2022/04/19 00:38:41;;;;;;;4.20;3.80;;;;;;;;;;5004052;28;20181;-77
2022/04/19 00:41:07;;;;;;;4.37;3.50;;;;;;;;;;4989387;28;20194;-76
2022/04/19 00:43:33;;;;;;;6.27;3.97;;;;;;;;;;5008025;28;20740;-76
2022/04/19 00:45:59;;;;;;;4.43;3.60;;;;;;;;;;5009855;28;20278;-77
2022/04/19 00:48:26;;;;;;;7.07;4.33;;;;;;;;;;5007989;28;20229;-77
2022/04/19 00:50:53;;;;;;;6.20;4.30;;;;;;;;;;5008066;28;20183;-76
2022/04/19 00:53:21;;;;;;;6.77;4.40;;;;;;;;;;5004707;28;20702;-77
2022/04/19 00:55:47;;;;;;;4.77;3.60;;;;;;;;;;4995496;28;20196;-77
2022/04/19 00:58:14;;;;;;;4.85;3.80;;;;;;;;;;5007742;28;20515;-77
2022/04/19 01:00:44;;;;;;;4.77;3.80;;;;;;;;;;5004302;28;20191;-76
2022/04/19 01:03:14;;;;;;;5.87;3.20;;;;;;;;;;5008306;28;20643;-77
2022/04/19 01:05:43;;;;;;;4.30;3.70;;;;;;;;;;5008539;28;20629;-77
2022/04/19 01:08:14;;;;;;;6.40;3.50;;;;;;;;;;5001124;28;20198;-76
2022/04/19 01:10:42;;;;;;;4.37;3.50;;;;;;;;;;5008567;28;20219;-76
2022/04/19 01:13:17;;;;;;;5.27;3.40;;;;;;;;;;4991821;28;20304;-77
2022/04/19 01:15:50;;;;;;;4.37;3.40;;;;;;;;;;5007091;28;20362;-76
2022/04/19 01:18:24;;;;;;;5.20;3.23;;;;;;;;;;5007522;28;20183;-78
2022/04/19 01:20:55;;;;;;;3.77;3.10;;;;;;;;;;4998947;28;20252;-77
2022/04/19 01:23:22;;;;;;;4.63;3.50;;;;;;;;;;4988173;28;20196;-77
2022/04/19 01:25:49;;;;;;;4.73;4.13;;;;;;;;;;4998876;28;20286;-77
2022/04/19 01:28:18;;;;;;;4.00;3.53;;;;;;;;;;5007026;28;20576;-77
2022/04/19 01:30:44;;;;;;;5.03;3.83;;;;;;;;;;5005544;28;20213;-78
2022/04/19 01:33:14;;;;;;;3.60;2.90;;;;;;;;;;5007213;28;20195;-77
2022/04/19 01:35:42;;;;;;;3.80;3.30;;;;;;;;;;4987132;28;20200;-76
2022/04/19 01:38:09;;;;;;;4.20;3.73;;;;;;;;;;5001242;28;20206;-77
2022/04/19 01:40:38;;;;;;;4.20;3.57;;;;;;;;;;5007110;28;20276;-78
2022/04/19 01:43:08;;;;;;;3.90;3.50;;;;;;;;;;5007139;28;20675;-77
2022/04/19 01:45:42;;;;;;;3.87;3.10;;;;;;;;;;5005166;28;20753;-76
2022/04/19 01:48:15;;;;;;;5.87;3.30;;;;;;;;;;5006108;28;20256;-76
2022/04/19 01:50:41;;;;;;;4.37;3.50;;;;;;;;;;5006191;28;20183;-78
2022/04/19 01:53:34;;;;;;;3.43;3.07;;;;;;;;;;4940281;28;20212;-77
2022/04/19 01:56:00;;;;;;;4.13;3.63;;;;;;;;;;5003938;28;20241;-76
2022/04/19 01:58:45;;;;;;;4.37;3.43;;;;;;;;;;5006583;28;20222;-77
2022/04/19 02:01:15;;;;;;;5.77;3.80;;;;;;;;;;5006882;28;20190;-77
2022/04/19 02:03:42;;;;;;;3.93;3.50;;;;;;;;;;4990820;28;20666;-77
2022/04/19 02:06:13;;;;;;;4.20;3.53;;;;;;;;;;5007356;28;20211;-77
2022/04/19 02:08:40;;;;;;;5.03;3.63;;;;;;;;;;5006511;28;20202;-77
2022/04/19 02:11:12;;;;;;;5.37;3.87;;;;;;;;;;5007359;28;20229;-77
2022/04/19 02:13:38;;;;;;;5.20;3.83;;;;;;;;;;5007373;28;20187;-77
2022/04/19 02:16:21;;;;;;;6.00;4.03;;;;;;;;;;5007179;28;20558;-77
2022/04/19 02:18:48;;;;;;;4.70;3.60;;;;;;;;;;5006342;28;20184;-76
2022/04/19 02:21:14;;;;;;;5.60;3.73;;;;;;;;;;4990704;28;20183;-77
2022/04/19 02:23:41;;;;;;;5.07;4.10;;;;;;;;;;5008288;28;20195;-77
2022/04/19 02:26:07;;;;;;;7.17;3.77;;;;;;;;;;5006554;28;20206;-77
2022/04/19 02:28:35;;;;;;;5.43;3.93;;;;;;;;;;4988428;28;20410;-77
2022/04/19 02:31:20;;;;;;;4.10;3.70;;;;;;;;;;5005266;28;20179;-77
2022/04/19 02:33:54;;;;;;;4.10;3.70;;;;;;;;;;5006663;28;20207;-77
2022/04/19 02:36:21;;;;;;;3.93;3.53;;;;;;;;;;5003515;28;20219;-77
2022/04/19 02:38:47;;;;;;;5.03;3.77;;;;;;;;;;5006471;28;20183;-77
2022/04/19 02:41:14;;;;;;;4.97;3.60;;;;;;;;;;5007001;28;20194;-77
2022/04/19 02:43:43;;;;;;;5.57;3.60;;;;;;;;;;5006510;28;20786;-77
2022/04/19 02:46:33;;;;;;;4.00;3.60;;;;;;;;;;4995556;28;20385;-76
2022/04/19 02:49:04;;;;;;;5.30;4.07;;;;;;;;;;4988196;28;20197;-76
2022/04/19 02:51:34;;;;;;;4.43;3.90;;;;;;;;;;5010969;28;20178;-77
2022/04/19 02:54:00;;;;;;;5.57;4.10;;;;;;;;;;5026665;28;20191;-77
2022/04/19 02:56:27;;;;;;;5.33;3.60;;;;;;;;;;5010414;28;20214;-77
2022/04/19 02:58:53;;;;;;;4.70;4.20;;;;;;;;;;4993617;28;20627;-77
2022/04/19 03:01:22;;;;;;;6.43;3.90;;;;;;;;;;5010642;28;20245;-77
2022/04/19 03:03:48;;;;;;;4.83;3.50;;;;;;;;;;5010455;28;20228;-76
2022/04/19 03:06:17;;;;;;;4.30;3.90;;;;;;;;;;5010291;28;20210;-76
2022/04/19 03:08:43;;;;;;;4.63;3.40;;;;;;;;;;5009911;28;20191;-76
2022/04/19 03:11:12;;;;;;;4.63;4.10;;;;;;;;;;5006847;28;20199;-76
2022/04/19 03:13:38;;;;;;;5.27;4.07;;;;;;;;;;4978061;28;20203;-77
2022/04/19 03:16:06;;;;;;;4.43;3.93;;;;;;;;;;5010290;28;20614;-76
2022/04/19 03:18:33;;;;;;;5.30;4.40;;;;;;;;;;5010481;28;20187;-76
2022/04/19 03:21:01;;;;;;;5.47;4.27;;;;;;;;;;5017434;28;20266;-77
2022/04/19 03:29:02;;;;;;;5.47;4.73;;;;;;;;;;4994800;28;20293;-77
2022/04/19 03:31:32;;;;;;;5.07;4.40;;;;;;;;;;5010252;28;20557;-77
2022/04/19 03:33:58;;;;;;;5.00;4.10;;;;;;;;;;5007654;28;20241;-77
2022/04/19 03:36:24;;;;;;;6.07;4.83;;;;;;;;;;5022129;28;20215;-77
2022/04/19 03:38:53;;;;;;;5.80;4.63;;;;;;;;;;5009488;28;20815;-76
2022/04/19 03:41:19;;;;;;;7.70;5.43;;;;;;;;;;5016559;28;20184;-77
2022/04/19 03:44:05;;;;;;;7.17;5.40;;;;;;;;;;5006965;28;20215;-76
2022/04/19 03:46:31;;;;;;;6.13;5.00;;;;;;;;;;4993800;28;20234;-76
2022/04/19 03:48:57;;;;;;;5.20;4.70;;;;;;;;;;5011020;28;20194;-76
2022/04/19 03:51:23;;;;;;;5.77;4.43;;;;;;;;;;5008893;28;20187;-76
2022/04/19 03:53:50;;;;;;;4.90;3.93;;;;;;;;;;5011191;28;20550;-76
2022/04/19 03:56:16;;;;;;;4.27;3.87;;;;;;;;;;4993189;28;20225;-76
2022/04/19 03:58:43;;;;;;;4.37;3.97;;;;;;;;;;5008874;28;20199;-77
2022/04/19 04:01:12;;;;;;;5.53;3.63;;;;;;;;;;5006657;28;20275;-76
2022/04/19 04:03:39;;;;;;;4.53;3.63;;;;;;;;;;5007124;28;20191;-76
2022/04/19 04:06:05;;;;;;;5.00;4.40;;;;;;;;;;5010223;28;20333;-77
2022/04/19 04:08:32;;;;;;;5.53;4.50;;;;;;;;;;5006358;28;20187;-77
2022/04/19 04:10:58;;;;;;;6.43;4.10;;;;;;;;;;5006774;28;20230;-78
2022/04/19 04:13:31;;;;;;;7.23;3.90;;;;;;;;;;4988985;28;20191;-76
2022/04/19 04:15:57;;;;;;;5.23;4.30;;;;;;;;;;5006781;28;20215;-77
2022/04/19 04:18:23;;;;;;;5.00;4.40;;;;;;;;;;5007073;28;21097;-76
2022/04/19 04:20:50;;;;;;;8.10;4.40;;;;;;;;;;5007226;28;20293;-76
2022/04/19 04:23:17;;;;;;;6.40;4.70;;;;;;;;;;5009419;28;20689;-77
2022/04/19 04:25:44;;;;;;;5.07;4.37;;;;;;;;;;5009388;28;20194;-77
2022/04/19 04:28:13;;;;;;;4.97;4.47;;;;;;;;;;4993248;28;20256;-77
2022/04/19 04:30:45;;;;;;;4.53;4.07;;;;;;;;;;5009196;28;20658;-76
2022/04/19 04:33:12;;;;;;;5.13;4.23;;;;;;;;;;4991698;28;20276;-77
2022/04/19 04:35:38;;;;;;;5.83;4.93;;;;;;;;;;5008841;28;20190;-77
2022/04/19 04:38:04;;;;;;;5.77;4.47;;;;;;;;;;5008834;28;20199;-76
2022/04/19 04:40:31;;;;;;;8.33;4.50;;;;;;;;;;5007895;28;20264;-76
2022/04/19 04:43:02;;;;;;;5.27;4.47;;;;;;;;;;5007047;28;20205;-76
2022/04/19 04:45:29;;;;;;;4.87;3.80;;;;;;;;;;5000952;28;20196;-77
2022/04/19 04:50:40;;;;;;;5.60;4.60;;;;;;;;;;5007464;28;20190;-76
2022/04/19 04:53:07;;;;;;;5.47;4.47;;;;;;;;;;5008135;28;20195;-76
2022/04/19 04:55:37;;;;;;;5.27;4.57;;;;;;;;;;4990673;28;20195;-76
2022/04/19 04:58:05;;;;;;;7.40;4.93;;;;;;;;;;5008173;28;20241;-76
2022/04/19 05:00:33;;;;;;;10.70;4.90;;;;;;;;;;5008514;28;20647;-75
2022/04/19 05:03:02;;;;;;;10.70;4.90;;;;;;;;;;4976311;28;20199;-78
2022/04/19 05:05:29;;;;;;;6.87;4.83;;;;;;;;;;4992115;28;20187;-78
2022/04/19 05:07:58;;;;;;;6.27;5.20;;;;;;;;;;5007742;28;20748;-77
2022/04/19 05:10:25;;;;;;;5.27;4.50;;;;;;;;;;4993581;28;20179;-83
2022/04/19 05:12:52;;;;;;;8.40;5.13;;;;;;;;;;4993021;28;20199;-81
2022/04/19 05:15:23;;;;;;;7.30;4.80;;;;;;;;;;5010296;28;20270;-84
2022/04/19 05:17:50;;;;;;;8.43;4.87;;;;;;;;;;4995341;28;20222;-85
2022/04/19 05:20:16;;;;;;;6.17;4.60;;;;;;;;;;4994022;28;20198;-78
2022/04/19 05:22:42;;;;;;;7.13;4.70;;;;;;;;;;4996413;28;20187;-83
2022/04/19 05:25:11;;;;;;;5.40;4.60;;;;;;;;;;5001844;28;20187;-84
2022/04/19 05:27:38;;;;;;;5.87;4.07;;;;;;;;;;4998735;28;20235;-84
2022/04/19 05:30:05;;;;;;;6.37;4.93;;;;;;;;;;4987200;28;20565;-83
2022/04/19 05:32:31;;;;;;;8.87;5.20;;;;;;;;;;5017484;28;20189;-84
2022/04/19 05:34:57;;;;;;;6.90;4.63;;;;;;;;;;4985429;28;20255;-84
2022/04/19 05:37:24;;;;;;;7.60;4.60;;;;;;;;;;5002368;28;20218;-84
2022/04/19 05:39:51;;;;;;;7.70;5.23;;;;;;;;;;5019951;28;20202;-85
2022/04/19 05:42:18;;;;;;;7.50;5.37;;;;;;;;;;4992041;28;20194;-83
2022/04/19 05:44:47;;;;;;;6.70;4.93;;;;;;;;;;4987044;28;20258;-84
2022/04/19 05:47:15;;;;;;;6.43;5.30;;;;;;;;;;4981253;28;20305;-82
2022/04/19 05:49:43;;;;;;;5.30;4.80;;;;;;;;;;5014209;28;20183;-78
2022/04/19 05:52:09;;;;;;;6.57;4.80;;;;;;;;;;5008246;28;20191;-79
2022/04/19 05:54:36;;;;;;;5.67;4.87;;;;;;;;;;5008492;28;20282;-79
2022/04/19 05:57:02;;;;;;;6.10;5.00;;;;;;;;;;5007117;28;20223;-78
2022/04/19 05:59:28;;;;;;;8.07;4.97;;;;;;;;;;5007232;28;20191;-79
2022/04/19 06:04:53;;;;;;;6.07;4.63;;;;;;;;;;5004474;28;20221;-78
2022/04/19 06:07:21;;;;;;;7.93;5.17;;;;;;;;;;5003298;28;20211;-79
2022/04/19 06:09:47;;;;;;;6.57;5.30;;;;;;;;;;5003816;28;20266;-78
2022/04/19 06:12:13;;;;;;;5.97;4.90;;;;;;;;;;5006677;28;20207;-79
2022/04/19 06:14:47;;;;;;;5.27;4.70;;;;;;;;;;5006901;28;20190;-79
2022/04/19 06:17:17;;;;;;;9.53;4.87;;;;;;;;;;4991123;28;20265;-79
2022/04/19 06:19:44;;;;;;;7.20;4.87;;;;;;;;;;4990185;28;20270;-79
2022/04/19 06:22:10;;;;;;;5.03;4.20;;;;;;;;;;4988346;28;20187;-81
2022/04/19 06:24:39;;;;;;;8.93;4.50;;;;;;;;;;5012372;28;20262;-79
2022/04/19 06:27:08;;;;;;;5.77;4.27;;;;;;;;;;4990427;28;20672;-79
2022/04/19 06:29:34;;;;;;;6.17;4.47;;;;;;;;;;5005770;28;20191;-79
2022/04/19 06:32:01;;;;;;;6.77;4.80;;;;;;;;;;4998356;28;20265;-79
2022/04/19 06:34:33;;;;;;;7.17;4.80;;;;;;;;;;5012518;28;20606;-79
2022/04/19 06:37:05;;;;;;;6.13;4.40;;;;;;;;;;4984137;28;20726;-82
2022/04/19 06:39:32;;;;;;;5.23;4.67;;;;;;;;;;4989133;28;20191;-79
2022/04/19 06:41:59;;;;;;;6.50;4.70;;;;;;;;;;5006401;28;20280;-78
2022/04/19 06:44:29;;;;;;;6.53;4.57;;;;;;;;;;5006297;28;20195;-81
2022/04/19 06:47:11;;;;;;;8.73;4.80;;;;;;;;;;4989648;28;20215;-80
2022/04/19 06:49:39;;;;;;;6.37;4.93;;;;;;;;;;5003566;28;20187;-79
2022/04/19 06:52:06;;;;;;;7.00;4.63;;;;;;;;;;5005418;28;20175;-79
2022/04/19 06:54:33;;;;;;;9.27;5.17;;;;;;;;;;5001619;28;20192;-79
2022/04/19 06:57:01;;;;;;;5.97;4.37;;;;;;;;;;5020915;28;20301;-79
2022/04/19 06:59:28;;;;;;;9.70;4.37;;;;;;;;;;5005518;28;20317;-78
2022/04/19 07:01:54;;;;;;;7.80;4.67;;;;;;;;;;5007489;28;20266;-78
2022/04/19 07:04:33;;;;;;;5.97;4.53;;;;;;;;;;5003442;28;20191;-79
2022/04/19 07:07:03;;;;;;;6.87;4.57;;;;;;;;;;5005931;28;20217;-79
2022/04/19 07:09:30;;;;;;;7.07;5.17;;;;;;;;;;5002359;28;20230;-82
2022/04/19 07:11:58;;;;;;;6.60;4.77;;;;;;;;;;5021572;28;20580;-79
2022/04/19 07:14:27;;;;;;;6.40;4.40;;;;;;;;;;4989504;28;20180;-79
2022/04/19 07:16:58;;;;;;;8.70;4.50;;;;;;;;;;5003787;28;20356;-79
2022/04/19 07:19:24;;;;;;;5.93;4.40;;;;;;;;;;4988902;28;20183;-80
2022/04/19 07:28:16;;;;;;;7.23;4.37;;;;;;;;;;4964512;28;20332;-79
2022/04/19 07:30:45;;;;;;;8.63;4.93;;;;;;;;;;4978447;28;20294;-79
2022/04/19 07:33:12;;;;;;;6.73;4.90;;;;;;;;;;5005724;28;20190;-79
2022/04/19 07:35:41;;;;;;;10.83;4.97;;;;;;;;;;5007549;28;20198;-81
2022/04/19 07:38:08;;;;;;;5.90;4.67;;;;;;;;;;5010090;28;20269;-78
2022/04/19 07:40:45;;;;;;;5.10;4.60;;;;;;;;;;5022062;28;20203;-80
2022/04/19 07:43:11;;;;;;;5.97;4.63;;;;;;;;;;4996020;28;20267;-79
2022/04/19 07:45:38;;;;;;;9.87;4.50;;;;;;;;;;4998184;28;20184;-79
2022/04/19 07:48:05;;;;;;;6.10;4.60;;;;;;;;;;5026131;28;20213;-80
2022/04/19 07:50:31;;;;;;;6.83;4.40;;;;;;;;;;5007762;28;20250;-82
2022/04/19 07:52:57;;;;;;;6.07;4.30;;;;;;;;;;4995530;28;20191;-84
2022/04/19 07:55:24;;;;;;;7.23;4.33;;;;;;;;;;4995274;28;20232;-81
2022/04/19 07:57:50;;;;;;;8.93;4.80;;;;;;;;;;4991441;28;20207;-76
2022/04/19 08:00:17;;;;;;;9.53;4.60;;;;;;;;;;4999854;28;20984;-75
2022/04/19 08:02:47;;;;;;;6.43;4.80;;;;;;;;;;5005562;28;20234;-77
2022/04/19 08:05:16;;;;;;;7.10;4.57;;;;;;;;;;4994366;28;20696;-79
2022/04/19 08:07:43;;;;;;;6.07;4.00;;;;;;;;;;5008487;28;20730;-76
2022/04/19 08:10:09;;;;;;;6.70;4.97;;;;;;;;;;5010408;28;20183;-75
2022/04/19 08:12:35;;;;;;;11.10;5.40;;;;;;;;;;5008029;28;20207;-75
2022/04/19 08:15:02;;;;;;;8.73;4.83;;;;;;;;;;5010971;28;20214;-75
2022/04/19 08:17:28;;;;;;;8.60;4.97;;;;;;;;;;4997028;28;20238;-76
2022/04/19 08:19:57;;;;;;;8.07;5.47;;;;;;;;;;4995539;28;20194;-76
2022/04/19 08:22:24;;;;;;;7.93;4.37;;;;;;;;;;4992485;28;20246;-83
2022/04/19 08:25:00;;;;;;;8.10;4.63;;;;;;;;;;5017208;28;20187;-83
2022/04/19 08:27:28;;;;;;;7.83;4.80;;;;;;;;;;4999539;28;20810;-80
2022/04/19 08:29:54;;;;;;;7.63;4.80;;;;;;;;;;5014312;28;20290;-81
2022/04/19 08:32:20;;;;;;;5.90;4.80;;;;;;;;;;5013913;28;20270;-80
2022/04/19 08:34:48;;;;;;;7.70;5.10;;;;;;;;;;5011025;28;20187;-81
2022/04/19 08:37:15;;;;;;;7.43;4.93;;;;;;;;;;5010233;28;20571;-81
2022/04/19 08:40:20;;;;;;;5.43;4.47;;;;;;;;;;4931237;29;20221;-82
2022/04/19 08:42:50;;;;;;;5.77;4.53;;;;;;;;;;4913898;29;20642;-83
2022/04/19 08:45:19;;;;;;;7.40;4.53;;;;;;;;;;4974627;28;20204;-81
2022/04/19 08:47:47;;;;;;;7.77;4.47;;;;;;;;;;5009282;28;20203;-81
2022/04/19 08:50:14;;;;;;;6.43;4.40;;;;;;;;;;4996234;28;20242;-81
2022/04/19 08:52:41;;;;;;;9.43;4.63;;;;;;;;;;4998227;28;20196;-80
2022/04/19 08:57:53;;;;;;;6.70;4.57;;;;;;;;;;5008787;28;20225;-80
2022/04/19 09:00:31;;;;;;;5.93;4.30;;;;;;;;;;5009485;28;20195;-81
2022/04/19 09:02:58;;;;;;;7.73;4.77;;;;;;;;;;5008451;28;20211;-80
2022/04/19 09:05:29;;;;;;;7.00;4.57;;;;;;;;;;5010105;28;20254;-80
2022/04/19 09:07:57;;;;;;;6.87;4.70;;;;;;;;;;5008810;28;20217;-81
2022/04/19 09:10:31;;;;;;;5.53;4.47;;;;;;;;;;5005953;28;20212;-82
2022/04/19 09:12:59;;;;;;;5.40;4.30;;;;;;;;;;5001319;28;20665;-82
2022/04/19 09:15:31;;;;;;;6.37;4.00;;;;;;;;;;5004930;28;20187;-83
2022/04/19 09:17:57;;;;;;;6.00;4.20;;;;;;;;;;5008009;28;20223;-80
2022/04/19 09:20:23;;;;;;;5.97;3.50;;;;;;;;;;5010267;28;20227;-81
2022/04/19 09:23:01;;;;;;;4.77;4.13;;;;;;;;;;5008804;28;20207;-81
2022/04/19 09:25:27;;;;;;;7.07;4.90;;;;;;;;;;5004797;28;20187;-81
2022/04/19 09:27:54;;;;;;;5.93;4.73;;;;;;;;;;4989303;28;20222;-83
2022/04/19 09:30:21;;;;;;;6.33;5.30;;;;;;;;;;5009628;28;20222;-82
2022/04/19 09:33:04;;;;;;;5.83;4.47;;;;;;;;;;5002525;28;20197;-81
2022/04/19 09:35:31;;;;;;;4.53;4.13;;;;;;;;;;5008471;28;20607;-81
2022/04/19 09:37:58;;;;;;;4.47;3.93;;;;;;;;;;5000693;28;20246;-81
2022/04/19 09:40:28;;;;;;;4.60;3.80;;;;;;;;;;4992157;28;20682;-82
2022/04/19 09:42:55;;;;;;;4.27;3.40;;;;;;;;;;5008052;28;20194;-81
2022/04/19 09:45:23;;;;;;;3.73;3.13;;;;;;;;;;5000954;28;20582;-81
2022/04/19 09:47:54;;;;;;;4.50;3.50;;;;;;;;;;5001522;28;21078;-81
2022/04/19 09:50:21;;;;;;;7.20;3.50;;;;;;;;;;5002720;28;20788;-81
2022/04/19 09:52:50;;;;;;;3.57;3.17;;;;;;;;;;5000886;28;20187;-81
2022/04/19 09:55:17;;;;;;;4.03;3.60;;;;;;;;;;5006385;28;20179;-81
2022/04/19 09:57:47;;;;;;;5.17;3.77;;;;;;;;;;5009082;28;20223;-81
2022/04/19 10:00:16;;;;;;;4.83;3.70;;;;;;;;;;5013335;28;20183;-81
2022/04/19 10:08:18;;;;;;;5.73;3.97;;;;;;;;;;5009769;28;20201;-81
2022/04/19 10:10:45;;;;;;;5.80;3.90;;;;;;;;;;5009254;28;20238;-81
2022/04/19 10:13:13;;;;;;;4.70;3.97;;;;;;;;;;4992639;28;20190;-81
2022/04/19 10:15:42;;;;;;;4.83;3.93;;;;;;;;;;5008381;28;20285;-81
2022/04/19 10:18:08;;;;;;;5.50;4.80;;;;;;;;;;5008128;28;20240;-82
2022/04/19 10:20:40;;;;;;;5.37;4.60;;;;;;;;;;5007946;28;20190;-81
2022/04/19 10:23:10;;;;;;;7.17;5.00;;;;;;;;;;4985788;28;20199;-81
2022/04/19 10:25:48;;;;;;;5.90;5.00;;;;;;;;;;5008271;28;20218;-82
2022/04/19 10:28:27;;;;;;;6.73;4.77;;;;;;;;;;4990665;28;20690;-81
2022/04/19 10:30:56;;;;;;;6.27;4.93;;;;;;;;;;4989677;28;20644;-81
2022/04/19 10:33:50;;;;;;;6.17;4.80;;;;;;;;;;5024938;28;20554;-81
2022/04/19 10:36:17;;;;;;;9.90;5.67;;;;;;;;;;4984046;28;20215;-81
2022/04/19 10:38:44;;;;;;;7.50;5.23;;;;;;;;;;4995201;28;20182;-82
2022/04/19 10:41:10;;;;;;;7.70;5.43;;;;;;;;;;5000170;28;20191;-81
2022/04/19 10:43:36;;;;;;;6.27;5.20;;;;;;;;;;5009289;28;20241;-82
2022/04/19 10:46:22;;;;;;;10.27;5.57;;;;;;;;;;5009950;28;20292;-81
2022/04/19 10:49:07;;;;;;;6.33;5.27;;;;;;;;;;5007662;28;20274;-83
2022/04/19 10:51:33;;;;;;;6.17;4.90;;;;;;;;;;4989385;28;20187;-82
2022/04/19 10:53:59;;;;;;;6.47;5.20;;;;;;;;;;5007575;28;20184;-81
2022/04/19 10:56:25;;;;;;;6.60;5.27;;;;;;;;;;5009781;28;20211;-81
2022/04/19 10:58:53;;;;;;;6.60;5.67;;;;;;;;;;4991566;28;20187;-81
2022/04/19 11:01:32;;;;;;;7.10;5.60;;;;;;;;;;5010095;28;20175;-81
2022/04/19 11:03:58;;;;;;;7.37;5.83;;;;;;;;;;5007913;28;20182;-81
2022/04/19 11:06:50;;;;;;;5.93;4.97;;;;;;;;;;4980551;28;20214;-81
2022/04/19 11:09:26;;;;;;;6.60;5.33;;;;;;;;;;5010636;28;20207;-81
2022/04/19 11:11:53;;;;;;;8.13;4.87;;;;;;;;;;4996033;28;20234;-81
2022/04/19 11:14:19;;;;;;;5.53;4.97;;;;;;;;;;5013448;28;20703;-81
2022/04/19 11:16:48;;;;;;;6.77;5.00;;;;;;;;;;5013289;28;20966;-80
2022/04/19 11:19:25;;;;;;;6.40;5.23;;;;;;;;;;5010946;28;20225;-81
2022/04/19 11:21:54;;;;;;;9.33;5.63;;;;;;;;;;5012908;28;20178;-83
2022/04/19 11:24:39;;;;;;;6.73;5.20;;;;;;;;;;5012360;28;20180;-81
2022/04/19 11:27:05;;;;;;;5.73;4.80;;;;;;;;;;5011896;28;20235;-84
2022/04/19 11:30:00;;;;;;;5.63;4.50;;;;;;;;;;5010911;28;20191;-82
2022/04/19 11:32:27;;;;;;;6.97;5.43;;;;;;;;;;5003208;28;20199;-81
2022/04/19 11:34:57;;;;;;;7.20;5.13;;;;;;;;;;5012386;28;20194;-81
2022/04/19 11:37:23;;;;;;;5.13;4.53;;;;;;;;;;5012773;28;20310;-82
2022/04/19 11:48:26;;;;;;;4.53;4.00;;;;;;;;;;4994522;28;20547;-81
2022/04/19 11:50:53;;;;;;;5.73;4.33;;;;;;;;;;5008677;28;20176;-81
2022/04/19 11:53:25;;;;;;;6.03;4.87;;;;;;;;;;5010580;28;20195;-82
2022/04/19 11:55:59;;;;;;;6.03;5.23;;;;;;;;;;5010330;28;20186;-81
2022/04/19 11:58:25;;;;;;;6.10;5.13;;;;;;;;;;5011308;28;20594;-84
2022/04/19 12:01:03;;;;;;;5.73;5.13;;;;;;;;;;5026888;28;20172;-81
2022/04/19 12:03:30;;;;;;;5.60;4.30;;;;;;;;;;5012210;28;20183;-82
2022/04/19 12:06:04;;;;;;;5.50;4.80;;;;;;;;;;5010016;28;20187;-82
2022/04/19 12:08:38;;;;;;;6.50;4.70;;;;;;;;;;5009450;28;20191;-83
2022/04/19 12:11:06;;;;;;;5.83;4.67;;;;;;;;;;5011515;28;20203;-82
2022/04/19 12:13:33;;;;;;;5.57;4.80;;;;;;;;;;5008145;28;20199;-82
2022/04/19 12:16:00;;;;;;;6.70;5.00;;;;;;;;;;5010511;28;20188;-82
2022/04/19 12:18:38;;;;;;;5.93;5.03;;;;;;;;;;5008200;28;20805;-82
2022/04/19 12:21:05;;;;;;;6.90;5.13;;;;;;;;;;5009102;28;20210;-82
2022/04/19 12:23:34;;;;;;;6.47;5.30;;;;;;;;;;5008566;28;20190;-82
2022/04/19 12:26:01;;;;;;;6.20;5.60;;;;;;;;;;5007598;28;20192;-82
2022/04/19 12:28:38;;;;;;;5.77;5.00;;;;;;;;;;5009648;28;20191;-82
2022/04/19 12:31:04;;;;;;;6.90;5.53;;;;;;;;;;4992881;28;20187;-82
2022/04/19 12:33:31;;;;;;;5.63;5.13;;;;;;;;;;5009155;28;20237;-81
2022/04/19 12:35:58;;;;;;;9.43;5.60;;;;;;;;;;5008133;28;20206;-82
2022/04/19 12:38:32;;;;;;;5.47;4.97;;;;;;;;;;5007499;28;20189;-81
2022/04/19 12:40:59;;;;;;;5.70;5.10;;;;;;;;;;4994020;28;20198;-82
2022/04/19 12:43:46;;;;;;;5.70;4.70;;;;;;;;;;4988992;28;20187;-82
2022/04/19 12:46:15;;;;;;;6.40;4.43;;;;;;;;;;5001634;28;20741;-82
2022/04/19 12:48:52;;;;;;;5.37;4.87;;;;;;;;;;5011575;28;20301;-83
2022/04/19 12:51:23;;;;;;;5.30;4.80;;;;;;;;;;5011291;28;20191;-81
2022/04/19 12:54:09;;;;;;;5.00;4.50;;;;;;;;;;5011872;28;20192;-82
2022/04/19 12:56:39;;;;;;;5.37;4.87;;;;;;;;;;5015835;28;20655;-83
2022/04/19 12:59:05;;;;;;;6.10;5.20;;;;;;;;;;5038541;28;20742;-82
2022/04/19 13:01:31;;;;;;;5.10;4.60;;;;;;;;;;5017733;28;20194;-82
2022/04/19 13:03:57;;;;;;;5.20;4.70;;;;;;;;;;5003126;28;20263;-82
2022/04/19 13:14:38;;;;;;;6.77;4.93;;;;;;;;;;5010669;28;20204;-81
2022/04/19 13:17:05;;;;;;;5.40;4.90;;;;;;;;;;5008305;28;20221;-81
2022/04/19 13:19:31;;;;;;;4.70;4.30;;;;;;;;;;5007305;28;20180;-81
2022/04/19 13:21:57;;;;;;;5.13;4.33;;;;;;;;;;5002131;28;20180;-83
2022/04/19 13:24:23;;;;;;;4.33;4.00;;;;;;;;;;5009152;28;20651;-80
2022/04/19 13:26:49;;;;;;;4.50;4.10;;;;;;;;;;5008020;28;20219;-80
2022/04/19 13:29:16;;;;;;;5.13;4.50;;;;;;;;;;5008964;28;20186;-80
2022/04/19 13:31:42;;;;;;;5.37;4.13;;;;;;;;;;5007674;28;20572;-81
2022/04/19 13:34:09;;;;;;;4.13;3.73;;;;;;;;;;5009058;28;20573;-85
2022/04/19 13:36:35;;;;;;;3.87;3.47;;;;;;;;;;5005169;28;20262;-82
2022/04/19 13:39:01;;;;;;;3.93;3.20;;;;;;;;;;5022707;28;20570;-82
2022/04/19 13:41:27;;;;;;;3.53;3.23;;;;;;;;;;5009222;28;20844;-83
2022/04/19 13:43:53;;;;;;;3.90;3.50;;;;;;;;;;5008984;28;20209;-82
2022/04/19 13:46:19;;;;;;;3.80;3.50;;;;;;;;;;5009453;28;20841;-82
2022/04/19 13:48:46;;;;;;;4.53;3.63;;;;;;;;;;4991672;28;20201;-82
2022/04/19 13:51:12;;;;;;;3.60;3.30;;;;;;;;;;5009881;28;20187;-82
2022/04/19 13:53:38;;;;;;;3.80;3.50;;;;;;;;;;5007331;28;20744;-82
2022/04/19 13:56:05;;;;;;;6.23;4.00;;;;;;;;;;5010686;28;20701;-82
2022/04/19 13:58:31;;;;;;;4.20;3.80;;;;;;;;;;5008979;28;20189;-81
2022/04/19 14:00:57;;;;;;;4.20;3.80;;;;;;;;;;5001478;28;20194;-81
2022/04/19 14:03:24;;;;;;;4.30;3.90;;;;;;;;;;5008834;28;20187;-82
2022/04/19 14:05:50;;;;;;;4.40;4.00;;;;;;;;;;5006916;28;20196;-82
2022/04/19 14:08:16;;;;;;;5.13;4.40;;;;;;;;;;5006989;28;20219;-83
2022/04/19 14:10:42;;;;;;;4.93;4.07;;;;;;;;;;4997732;28;20206;-83
2022/04/19 14:13:08;;;;;;;3.67;3.37;;;;;;;;;;5003988;28;20191;-83
2022/04/19 14:15:34;;;;;;;4.27;3.43;;;;;;;;;;4991176;28;20188;-83
2022/04/19 14:18:03;;;;;;;4.83;3.60;;;;;;;;;;4996790;28;20237;-83
2022/04/19 14:20:29;;;;;;;3.90;3.50;;;;;;;;;;4999949;28;20215;-82
2022/04/19 14:22:55;;;;;;;3.43;3.13;;;;;;;;;;5002716;28;20191;-81
2022/04/19 14:25:21;;;;;;;3.97;3.57;;;;;;;;;;4998408;28;20716;-82
2022/04/19 14:27:48;;;;;;;5.00;3.43;;;;;;;;;;4995220;28;20314;-83
2022/04/19 14:33:15;;;;;;;3.63;3.23;;;;;;;;;;4998046;28;20230;-82
2022/04/19 14:35:42;;;;;;;5.97;3.90;;;;;;;;;;5025691;28;20301;-82
2022/04/19 14:38:08;;;;;;;3.70;3.40;;;;;;;;;;5029878;28;20296;-82
2022/04/19 14:40:34;;;;;;;3.20;2.90;;;;;;;;;;5012992;28;20194;-82
2022/04/19 14:43:00;;;;;;;3.90;3.20;;;;;;;;;;5005883;28;20709;-82
2022/04/19 14:45:27;;;;;;;2.73;2.53;;;;;;;;;;5009659;28;20205;-82
2022/04/19 14:47:53;;;;;;;2.70;2.40;;;;;;;;;;5009607;28;20220;-82
2022/04/19 14:50:19;;;;;;;4.67;2.43;;;;;;;;;;5009038;28;20179;-82
2022/04/19 14:52:47;;;;;;;2.80;2.60;;;;;;;;;;5008393;28;20187;-82
2022/04/19 14:55:15;;;;;;;2.57;2.17;;;;;;;;;;4991640;28;20210;-82
2022/04/19 14:57:45;;;;;;;2.50;2.10;;;;;;;;;;5016345;28;20227;-82
2022/04/19 15:00:11;;;;;;;2.20;2.00;;;;;;;;;;4998940;28;20225;-82
2022/04/19 15:02:39;;;;;;;2.47;2.20;;;;;;;;;;5002318;28;20302;-82
2022/04/19 15:05:05;;;;;;;1.80;1.70;;;;;;;;;;5007874;28;20202;-82
2022/04/19 15:07:32;;;;;;;1.97;1.80;;;;;;;;;;5002394;28;20826;-81
2022/04/19 15:09:58;;;;;;;2.23;1.80;;;;;;;;;;5007452;28;20237;-83
2022/04/19 15:12:26;;;;;;;2.10;1.90;;;;;;;;;;5000563;28;20780;-82
2022/04/19 15:14:53;;;;;;;1.90;1.60;;;;;;;;;;5003801;28;20184;-82
2022/04/19 15:17:19;;;;;;;1.90;1.80;;;;;;;;;;5001825;28;20215;-81
2022/04/19 15:19:46;;;;;;;2.60;1.80;;;;;;;;;;5007267;28;20183;-81
2022/04/19 15:22:13;;;;;;;1.90;1.80;;;;;;;;;;5004447;28;20187;-81
2022/04/19 15:24:40;;;;;;;2.03;1.60;;;;;;;;;;5005483;28;20277;-81
2022/04/19 15:27:06;;;;;;;1.80;1.70;;;;;;;;;;5007658;28;20265;-81
2022/04/19 15:29:33;;;;;;;1.80;1.70;;;;;;;;;;5007657;28;20212;-81
2022/04/19 15:32:00;;;;;;;2.60;1.70;;;;;;;;;;5003198;28;20190;-82
2022/04/19 15:34:27;;;;;;;1.87;1.60;;;;;;;;;;5006261;28;20185;-81
2022/04/19 15:36:53;;;;;;;2.03;1.80;;;;;;;;;;5005794;28;20255;-81
2022/04/19 15:39:19;;;;;;;2.43;1.80;;;;;;;;;;5006978;28;20582;-82